Villa Clarita, Puerto Rico
Current Conditions -  °F | °C
As of 7:20 AM on Thursday 23 Oct 2014 (Local Time) from TJNR Reporting Station
Scattered Clouds Scattered Clouds  
Wind Chill: 81°   Ceiling: Unl
Heat Index: 87°   Visibility: 10mi
Dew Point: 76°   Wind: 3mph
Humidity: 85%   Direction: 170°S
Pressure: 29.96"   Gusts: NA
Location:  18.3304°N, 65.6573°W
Report Text: TJNR 231120Z AUTO 17003KT 10SM SCT025 SCT065 27/24 A2996 RMK AO2 RAE1056 P0000 T02720244
Loading
Personal Weather Stations






























Interactive Weather Map New forecast layout! Learn more

10-Day Weather Forecast

Advertisements
Track Severe Weather on mobile